Time;durP1;ratioP1;P1;durP2;ratioP2;P2;SDS_P1;SDS_P2;PMS_P1;PMS_P2;Temp;Humidity;BMP_temperature;BMP_pressure;BME280_temperature;BME280_humidity;BME280_pressure;Samples;Min_cycle;Max_cycle;Signal;HPM_P1;HPM_P2
2021/10/05 00:02:14;;;;;;;4.53;3.38;;;10.90;75.50;;;;;;4991491;28;20391;-74
2021/10/05 00:04:39;;;;;;;5.68;3.92;;;10.90;75.10;;;;;;4992260;28;20383;-74
2021/10/05 00:07:05;;;;;;;6.33;3.40;;;10.80;75.90;;;;;;4990512;28;20647;-74
2021/10/05 00:09:31;;;;;;;6.13;3.37;;;10.90;75.20;;;;;;4975396;28;20403;-74
2021/10/05 00:11:56;;;;;;;3.75;3.30;;;11.00;74.00;;;;;;4984386;28;20383;-74
2021/10/05 00:14:22;;;;;;;4.70;3.45;;;10.90;74.30;;;;;;4990280;28;20387;-74
2021/10/05 00:16:49;;;;;;;3.40;3.10;;;10.90;75.00;;;;;;4988718;28;20918;-74
2021/10/05 00:19:15;;;;;;;4.30;3.17;;;10.80;75.80;;;;;;4971957;28;20430;-75
2021/10/05 00:21:41;;;;;;;3.97;3.50;;;10.90;75.30;;;;;;4972032;28;20451;-75
2021/10/05 00:24:07;;;;;;;7.03;3.90;;;10.90;75.90;;;;;;4972902;28;20395;-76
2021/10/05 00:26:33;;;;;;;3.73;3.43;;;10.80;76.60;;;;;;4973403;28;20494;-75
2021/10/05 00:28:58;;;;;;;7.13;4.33;;;10.80;76.60;;;;;;4972012;28;20483;-74
2021/10/05 00:31:24;;;;;;;3.60;3.30;;;10.90;77.80;;;;;;4973425;28;20388;-74
2021/10/05 00:33:49;;;;;;;5.93;3.73;;;10.90;76.20;;;;;;4986076;28;20789;-75
2021/10/05 00:36:15;;;;;;;5.93;3.80;;;11.00;76.70;;;;;;4994008;28;20858;-76
2021/10/05 00:38:40;;;;;;;3.80;3.40;;;11.00;75.70;;;;;;4991366;28;20726;-76
2021/10/05 00:41:06;;;;;;;5.03;3.80;;;10.90;75.00;;;;;;4975449;28;20921;-75
2021/10/05 00:43:32;;;;;;;5.60;3.42;;;10.90;76.00;;;;;;4972347;28;20917;-75
2021/10/05 00:45:57;;;;;;;6.03;3.50;;;10.90;75.00;;;;;;4973292;28;20865;-75
2021/10/05 00:48:23;;;;;;;6.70;3.42;;;10.90;76.20;;;;;;4970404;28;20766;-75
2021/10/05 00:50:49;;;;;;;7.70;3.10;;;10.90;77.20;;;;;;4978514;28;20403;-75
2021/10/05 00:53:15;;;;;;;4.00;3.60;;;10.80;77.80;;;;;;4980674;28;20825;-75
2021/10/05 00:55:41;;;;;;;6.90;3.80;;;10.90;78.00;;;;;;4979528;28;20388;-75
2021/10/05 00:58:07;;;;;;;5.30;3.60;;;10.80;78.80;;;;;;4976249;28;20491;-75
2021/10/05 01:00:33;;;;;;;5.13;3.45;;;10.80;79.20;;;;;;4973193;28;20431;-76
2021/10/05 01:02:59;;;;;;;3.58;3.28;;;10.90;77.90;;;;;;4990734;28;20886;-76
2021/10/05 01:05:24;;;;;;;5.43;3.10;;;10.90;77.60;;;;;;4989852;28;20391;-76
2021/10/05 01:07:50;;;;;;;4.78;3.72;;;10.90;77.40;;;;;;4989914;28;20879;-75
2021/10/05 01:10:17;;;;;;;3.75;3.38;;;10.80;77.40;;;;;;4955243;28;20477;-76
2021/10/05 01:12:51;;;;;;;3.50;3.20;;;10.70;79.60;;;;;;4990720;28;20763;-76
2021/10/05 01:15:19;;;;;;;5.90;3.42;;;10.70;80.30;;;;;;4983588;28;20813;-75
2021/10/05 01:17:44;;;;;;;8.05;3.90;;;10.70;80.90;;;;;;4970205;28;20501;-76
2021/10/05 01:20:11;;;;;;;4.85;3.35;;;10.60;81.70;;;;;;4953974;28;20426;-75
2021/10/05 01:22:37;;;;;;;6.07;3.87;;;10.70;82.20;;;;;;4952544;28;20388;-75
2021/10/05 01:25:08;;;;;;;6.05;3.85;;;10.60;81.50;;;;;;4952597;28;20414;-76
2021/10/05 01:27:51;;;;;;;6.50;3.77;;;10.70;81.70;;;;;;4972396;28;20396;-76
2021/10/05 01:30:19;;;;;;;6.22;3.80;;;10.70;81.50;;;;;;4971070;28;20483;-76
2021/10/05 01:32:45;;;;;;;5.15;3.70;;;10.80;81.00;;;;;;4974478;28;20392;-76
2021/10/05 01:35:12;;;;;;;3.83;3.33;;;10.80;79.60;;;;;;4973924;28;20861;-76
2021/10/05 01:37:38;;;;;;;5.75;3.72;;;10.80;79.70;;;;;;4971892;28;20416;-76
2021/10/05 01:40:06;;;;;;;4.27;3.80;;;10.70;79.90;;;;;;4961619;28;20517;-76
2021/10/05 01:42:32;;;;;;;6.63;3.50;;;10.80;80.50;;;;;;4970959;28;20738;-75
2021/10/05 01:44:58;;;;;;;3.63;3.30;;;10.80;80.10;;;;;;4972159;28;20403;-76
2021/10/05 01:47:23;;;;;;;5.57;3.50;;;10.80;79.00;;;;;;4971852;28;20395;-76
2021/10/05 01:49:49;;;;;;;7.50;3.90;;;10.80;79.30;;;;;;4958153;28;20410;-76
2021/10/05 01:52:15;;;;;;;3.80;3.50;;;10.80;80.50;;;;;;4952652;28;20398;-75
2021/10/05 01:54:40;;;;;;;5.97;3.53;;;10.80;81.30;;;;;;4972893;28;20402;-75
2021/10/05 01:57:06;;;;;;;4.97;3.70;;;10.80;80.50;;;;;;4977756;28;20405;-74
2021/10/05 01:59:31;;;;;;;7.50;3.50;;;10.80;80.60;;;;;;4970940;28;20404;-74
2021/10/05 02:01:57;;;;;;;4.10;3.50;;;10.80;79.10;;;;;;4972436;28;20400;-75
2021/10/05 02:04:22;;;;;;;3.50;3.20;;;10.80;79.60;;;;;;4972162;28;20787;-77
2021/10/05 02:06:48;;;;;;;5.95;3.45;;;10.80;80.00;;;;;;4971987;28;20403;-75
2021/10/05 02:09:14;;;;;;;7.72;3.40;;;10.70;81.70;;;;;;4972127;28;20400;-75
2021/10/05 02:11:40;;;;;;;5.63;3.83;;;10.70;82.50;;;;;;4982505;28;20406;-75
2021/10/05 02:14:06;;;;;;;5.50;3.40;;;10.70;81.80;;;;;;4990465;28;20398;-74
2021/10/05 02:16:33;;;;;;;4.50;3.15;;;10.70;82.10;;;;;;4991781;28;20768;-75
2021/10/05 02:18:59;;;;;;;5.00;3.30;;;10.70;82.50;;;;;;4992343;28;20490;-76
2021/10/05 02:21:25;;;;;;;5.20;3.50;;;10.70;81.80;;;;;;4992396;28;20791;-76
2021/10/05 02:26:35;;;;;;;4.13;3.50;;;10.60;84.30;;;;;;4955284;28;20945;-76
2021/10/05 02:29:01;;;;;;;5.90;3.35;;;10.70;83.10;;;;;;4955666;28;20425;-76
2021/10/05 02:31:27;;;;;;;5.00;4.00;;;10.70;82.90;;;;;;4968806;28;20415;-75
2021/10/05 02:33:53;;;;;;;4.40;3.35;;;10.70;82.80;;;;;;4974882;28;20392;-76
2021/10/05 02:36:19;;;;;;;5.90;4.10;;;10.70;83.80;;;;;;4981841;28;20424;-76
2021/10/05 02:38:45;;;;;;;3.67;3.30;;;10.70;83.50;;;;;;4994202;28;20434;-77
2021/10/05 02:41:10;;;;;;;3.85;3.40;;;10.70;82.50;;;;;;4978930;28;20402;-76
2021/10/05 02:43:36;;;;;;;4.20;3.10;;;10.80;82.50;;;;;;4955578;28;20394;-77
2021/10/05 02:46:02;;;;;;;4.20;3.13;;;10.80;83.10;;;;;;4954016;28;20476;-77
2021/10/05 02:48:28;;;;;;;7.13;3.40;;;10.80;81.40;;;;;;4955430;28;20434;-77
2021/10/05 02:50:54;;;;;;;3.60;3.30;;;10.80;81.60;;;;;;4989197;28;20413;-76
2021/10/05 02:53:19;;;;;;;4.73;3.67;;;10.90;80.50;;;;;;5012461;28;20756;-77
2021/10/05 02:55:47;;;;;;;6.23;3.80;;;10.90;81.80;;;;;;4996593;28;20412;-77
2021/10/05 02:58:13;;;;;;;3.80;3.40;;;10.80;81.20;;;;;;4979865;28;20463;-76
2021/10/05 03:00:38;;;;;;;4.35;3.00;;;10.80;80.50;;;;;;4975130;28;20415;-76
2021/10/05 03:03:04;;;;;;;4.03;3.10;;;10.90;80.00;;;;;;4975406;28;20471;-79
2021/10/05 03:05:29;;;;;;;5.07;3.20;;;10.90;80.00;;;;;;4964685;28;20398;-75
2021/10/05 03:07:55;;;;;;;7.33;3.47;;;10.90;79.90;;;;;;4956927;28;20394;-75
2021/10/05 03:10:20;;;;;;;4.15;3.50;;;10.90;80.40;;;;;;4965409;28;20417;-76
2021/10/05 03:12:46;;;;;;;5.25;3.55;;;10.90;80.50;;;;;;4972891;28;20470;-76
2021/10/05 03:15:14;;;;;;;4.93;2.90;;;10.90;78.60;;;;;;4974179;28;20388;-75
2021/10/05 03:17:39;;;;;;;5.00;3.53;;;10.90;78.80;;;;;;4978598;28;20418;-77
2021/10/05 03:20:06;;;;;;;4.40;3.10;;;10.80;79.50;;;;;;4974832;28;20402;-76
2021/10/05 03:22:31;;;;;;;3.97;3.58;;;10.80;81.00;;;;;;4974163;28;20461;-77
2021/10/05 03:24:57;;;;;;;5.47;3.15;;;10.80;82.30;;;;;;4974434;28;20838;-77
2021/10/05 03:27:22;;;;;;;3.00;2.80;;;10.80;81.00;;;;;;4960802;28;20871;-77
2021/10/05 03:29:48;;;;;;;4.03;3.20;;;10.80;81.10;;;;;;4953724;28;20894;-77
2021/10/05 03:32:13;;;;;;;3.93;3.10;;;10.70;82.30;;;;;;4976544;28;20883;-77
2021/10/05 03:34:39;;;;;;;2.70;2.50;;;10.70;83.00;;;;;;4994123;28;20389;-77
2021/10/05 03:37:05;;;;;;;6.72;3.55;;;10.70;83.80;;;;;;4992162;28;20767;-76
2021/10/05 03:39:30;;;;;;;3.90;3.60;;;10.70;84.00;;;;;;4993940;28;20387;-76
2021/10/05 03:41:56;;;;;;;3.60;3.00;;;10.60;84.70;;;;;;4982263;28;20400;-77
2021/10/05 03:44:21;;;;;;;4.07;2.80;;;10.60;86.20;;;;;;4979701;28;20469;-75
2021/10/05 03:46:47;;;;;;;3.20;2.90;;;10.60;86.70;;;;;;4974111;28;20471;-76
2021/10/05 03:49:13;;;;;;;4.80;3.00;;;10.60;87.60;;;;;;4978680;28;20407;-76
2021/10/05 03:51:38;;;;;;;5.63;3.38;;;10.60;86.40;;;;;;4980126;28;20404;-75
2021/10/05 03:54:04;;;;;;;4.35;3.22;;;10.60;87.30;;;;;;4978692;28;20488;-76
2021/10/05 03:56:29;;;;;;;5.53;3.47;;;10.50;87.50;;;;;;4975879;28;20817;-77
2021/10/05 03:58:55;;;;;;;3.58;3.00;;;10.50;87.90;;;;;;4977053;28;20423;-76
2021/10/05 04:01:21;;;;;;;5.10;3.60;;;10.50;88.60;;;;;;5000406;28;20745;-76
2021/10/05 04:03:46;;;;;;;3.38;3.08;;;10.50;88.80;;;;;;4993392;28;20382;-76
2021/10/05 04:06:12;;;;;;;5.10;3.10;;;10.50;90.00;;;;;;4992959;28;20525;-76
2021/10/05 04:08:37;;;;;;;4.40;3.43;;;10.60;88.80;;;;;;4985131;28;20447;-76
2021/10/05 04:11:05;;;;;;;3.50;3.20;;;10.50;89.20;;;;;;4965947;28;20400;-76
2021/10/05 04:13:31;;;;;;;4.53;3.10;;;10.60;90.70;;;;;;4976625;28;20503;-76
2021/10/05 04:15:57;;;;;;;4.82;3.08;;;10.60;89.80;;;;;;4992165;28;21155;-76
2021/10/05 04:18:23;;;;;;;3.40;3.10;;;10.60;89.50;;;;;;4992324;28;20410;-76
2021/10/05 04:20:48;;;;;;;3.90;3.00;;;10.70;89.80;;;;;;4992012;28;20496;-75
2021/10/05 04:23:14;;;;;;;3.30;3.10;;;10.70;88.20;;;;;;4991868;28;20942;-76
2021/10/05 04:25:39;;;;;;;3.70;3.40;;;10.60;88.80;;;;;;4954146;28;20409;-78
2021/10/05 04:28:05;;;;;;;5.83;3.10;;;10.70;89.10;;;;;;4975755;28;20442;-77
2021/10/05 04:30:31;;;;;;;3.20;2.90;;;10.70;89.60;;;;;;4996359;28;20453;-76
2021/10/05 04:32:56;;;;;;;5.27;3.53;;;10.70;90.00;;;;;;4992933;28;20401;-76
2021/10/05 04:35:22;;;;;;;3.50;3.20;;;10.70;89.50;;;;;;4992345;28;20910;-76
2021/10/05 04:37:47;;;;;;;3.67;3.37;;;10.70;89.50;;;;;;4991731;28;20453;-76
2021/10/05 04:40:13;;;;;;;5.23;3.70;;;10.70;89.20;;;;;;4973780;28;20435;-76
2021/10/05 04:42:40;;;;;;;4.07;3.30;;;10.70;89.60;;;;;;4983828;28;20850;-76
2021/10/05 04:45:06;;;;;;;3.80;2.80;;;10.70;91.70;;;;;;4991752;28;20437;-76
2021/10/05 04:47:32;;;;;;;5.25;3.40;;;10.80;87.50;;;;;;4991105;28;20391;-76
2021/10/05 04:49:58;;;;;;;4.90;3.20;;;10.80;88.30;;;;;;4991526;28;20402;-76
2021/10/05 04:52:23;;;;;;;5.97;3.40;;;10.70;89.90;;;;;;4989052;28;20417;-76
2021/10/05 04:54:49;;;;;;;8.70;3.70;;;10.70;91.40;;;;;;4953094;28;20402;-76
2021/10/05 04:57:14;;;;;;;4.00;3.70;;;10.70;90.90;;;;;;4972093;28;20455;-76
2021/10/05 04:59:40;;;;;;;5.10;3.50;;;10.70;90.50;;;;;;4973687;28;20412;-76
2021/10/05 05:02:05;;;;;;;5.68;5.03;;;10.70;91.10;;;;;;4972049;28;20464;-76
2021/10/05 05:04:31;;;;;;;4.72;4.22;;;10.70;90.60;;;;;;4971918;28;20419;-76
2021/10/05 05:06:56;;;;;;;7.93;4.60;;;10.60;92.20;;;;;;4971785;28;20749;-76
2021/10/05 05:09:22;;;;;;;7.45;5.10;;;10.60;91.60;;;;;;4973340;28;20392;-76
2021/10/05 05:11:48;;;;;;;5.70;4.00;;;10.60;92.80;;;;;;4979030;28;20388;-76
2021/10/05 05:14:15;;;;;;;6.00;4.73;;;10.60;93.40;;;;;;4974391;28;20467;-76
2021/10/05 05:16:41;;;;;;;8.00;4.82;;;10.60;93.60;;;;;;4974414;28;20475;-76
2021/10/05 05:19:08;;;;;;;9.20;4.45;;;10.50;95.10;;;;;;4987531;28;20611;-77
2021/10/05 05:21:34;;;;;;;4.45;4.05;;;10.50;94.40;;;;;;4980204;28;20959;-77
2021/10/05 05:24:00;;;;;;;84.25;47.60;;;10.60;94.00;;;;;;4965473;28;20584;-76
2021/10/05 05:26:26;;;;;;;20.42;12.15;;;10.60;96.20;;;;;;4985760;28;20419;-77
2021/10/05 05:28:53;;;;;;;20.45;12.32;;;10.60;94.70;;;;;;4980816;28;20458;-75
2021/10/05 05:31:24;;;;;;;18.70;11.88;;;10.70;96.60;;;;;;4989455;28;20408;-77
2021/10/05 05:33:50;;;;;;;7.97;6.28;;;10.70;96.30;;;;;;4973917;28;20405;-75
2021/10/05 05:36:15;;;;;;;11.40;8.90;;;10.70;95.30;;;;;;4971920;28;20781;-74
2021/10/05 05:38:41;;;;;;;6.40;5.13;;;10.80;95.40;;;;;;4965340;28;20468;-74
2021/10/05 05:41:07;;;;;;;8.67;6.50;;;10.70;94.20;;;;;;4971223;28;20400;-75
2021/10/05 05:43:33;;;;;;;8.02;5.55;;;10.70;94.60;;;;;;4986845;28;20409;-75
2021/10/05 05:45:58;;;;;;;7.63;6.20;;;10.70;95.00;;;;;;4987647;28;20398;-75
2021/10/05 05:48:24;;;;;;;11.45;6.35;;;10.80;95.60;;;;;;4983341;28;20689;-74
2021/10/05 05:50:50;;;;;;;18.35;12.20;;;10.80;95.30;;;;;;4953639;28;20414;-72
2021/10/05 05:53:15;;;;;;;11.88;9.15;;;10.90;94.30;;;;;;4957957;28;20403;-74
2021/10/05 05:55:41;;;;;;;10.47;7.97;;;10.90;94.60;;;;;;4981714;28;20468;-73
2021/10/05 05:58:12;;;;;;;9.15;6.50;;;11.00;91.30;;;;;;4975381;28;20432;-74
2021/10/05 06:00:38;;;;;;;13.63;6.80;;;11.10;89.50;;;;;;4972823;28;20450;-73
2021/10/05 06:03:04;;;;;;;9.93;7.00;;;11.10;88.60;;;;;;4974929;28;20428;-73
2021/10/05 06:05:30;;;;;;;9.20;6.80;;;11.10;88.80;;;;;;4967736;28;20836;-74
2021/10/05 06:07:56;;;;;;;12.43;7.80;;;11.10;89.10;;;;;;4975193;28;20900;-74
2021/10/05 06:10:22;;;;;;;10.00;6.68;;;11.10;89.10;;;;;;4975739;28;20427;-75
2021/10/05 06:12:47;;;;;;;7.32;6.57;;;11.10;89.40;;;;;;4978949;28;20394;-73
2021/10/05 06:15:15;;;;;;;9.77;6.63;;;11.20;88.60;;;;;;4990386;28;20396;-74
2021/10/05 06:17:43;;;;;;;7.50;5.85;;;11.10;88.30;;;;;;4980759;28;20439;-74
2021/10/05 06:20:11;;;;;;;7.40;6.50;;;11.20;88.00;;;;;;4986578;28;20883;-74
2021/10/05 06:22:38;;;;;;;7.95;5.88;;;11.20;89.00;;;;;;4978536;28;20410;-75
2021/10/05 06:25:05;;;;;;;6.82;5.72;;;11.30;87.10;;;;;;4964608;28;20865;-75
2021/10/05 06:27:31;;;;;;;8.27;6.40;;;11.30;86.80;;;;;;4983648;28;20850;-76
2021/10/05 06:29:58;;;;;;;11.77;6.38;;;11.30;86.90;;;;;;4974614;28;20535;-75
2021/10/05 06:32:27;;;;;;;9.52;6.70;;;11.30;85.80;;;;;;4973350;28;20399;-76
2021/10/05 06:34:53;;;;;;;7.40;5.95;;;11.40;84.70;;;;;;4957852;28;20756;-77
2021/10/05 06:37:20;;;;;;;7.50;6.43;;;11.40;83.70;;;;;;4956361;28;20406;-74
2021/10/05 06:39:45;;;;;;;7.60;6.17;;;11.50;83.30;;;;;;4981409;28;20533;-74
2021/10/05 06:42:11;;;;;;;8.30;6.43;;;11.60;84.70;;;;;;4975170;28;20427;-75
2021/10/05 06:44:38;;;;;;;9.93;6.80;;;11.60;81.10;;;;;;4973014;28;20399;-75
2021/10/05 06:47:03;;;;;;;7.03;6.33;;;11.70;80.50;;;;;;4974634;28;20392;-75
2021/10/05 06:49:29;;;;;;;7.83;6.53;;;11.80;78.50;;;;;;4972117;28;20472;-76
2021/10/05 06:51:54;;;;;;;10.57;5.97;;;11.80;78.20;;;;;;4974816;28;20458;-76
2021/10/05 06:54:20;;;;;;;6.50;5.90;;;11.90;78.60;;;;;;4974331;28;20471;-76
2021/10/05 06:56:46;;;;;;;7.93;6.13;;;11.90;78.30;;;;;;4983147;28;20864;-74
2021/10/05 06:59:11;;;;;;;10.63;5.93;;;11.90;77.20;;;;;;4974436;28;20913;-76
2021/10/05 07:01:37;;;;;;;6.97;6.27;;;12.00;75.10;;;;;;4980947;28;20823;-78
2021/10/05 07:04:02;;;;;;;8.07;6.50;;;12.00;75.00;;;;;;4969941;28;20492;-76
2021/10/05 07:06:28;;;;;;;8.23;5.90;;;12.20;73.30;;;;;;4974270;28;20435;-75
2021/10/05 07:08:55;;;;;;;6.70;6.10;;;12.20;72.60;;;;;;4957170;28;20973;-75
2021/10/05 07:11:21;;;;;;;8.40;6.20;;;12.30;70.90;;;;;;4967476;28;20396;-77
2021/10/05 07:13:47;;;;;;;7.50;5.80;;;12.40;70.90;;;;;;4968252;28;20414;-78
2021/10/05 07:16:12;;;;;;;7.97;6.07;;;12.50;68.40;;;;;;4994085;28;20394;-76
2021/10/05 07:18:38;;;;;;;7.23;6.00;;;12.70;67.80;;;;;;4978857;28;20474;-78
2021/10/05 07:21:04;;;;;;;6.97;5.23;;;12.80;64.80;;;;;;4973539;28;20873;-77
2021/10/05 07:23:29;;;;;;;9.20;5.82;;;12.80;65.20;;;;;;4975837;28;20460;-76
2021/10/05 07:25:55;;;;;;;9.35;5.35;;;12.90;64.20;;;;;;4976516;28;20392;-77
2021/10/05 07:28:21;;;;;;;10.95;5.80;;;12.90;64.30;;;;;;4960836;28;20456;-77
2021/10/05 07:30:47;;;;;;;5.82;5.05;;;13.10;62.40;;;;;;4952844;28;20517;-76
2021/10/05 07:33:14;;;;;;;7.82;5.65;;;13.20;61.20;;;;;;4954955;28;20420;-77
2021/10/05 07:35:40;;;;;;;5.57;4.93;;;13.30;60.10;;;;;;4954516;28;20480;-77
2021/10/05 07:38:05;;;;;;;7.20;5.40;;;13.40;58.40;;;;;;4955503;28;20421;-77
2021/10/05 07:40:32;;;;;;;5.80;5.20;;;13.40;57.70;;;;;;4955337;28;20448;-77
2021/10/05 07:42:58;;;;;;;5.68;4.97;;;13.60;56.70;;;;;;4967402;28;20427;-75
2021/10/05 07:45:25;;;;;;;7.70;5.30;;;13.80;56.30;;;;;;4973224;28;20392;-73
2021/10/05 07:47:51;;;;;;;5.80;4.80;;;13.90;55.30;;;;;;4972581;28;20893;-73
2021/10/05 07:50:18;;;;;;;5.57;4.90;;;14.10;51.90;;;;;;4973604;28;20388;-73
2021/10/05 07:52:44;;;;;;;4.60;4.18;;;14.10;50.70;;;;;;4959597;28;20409;-73
2021/10/05 07:55:10;;;;;;;7.27;4.00;;;14.20;51.00;;;;;;4954327;28;20390;-73
2021/10/05 07:57:36;;;;;;;4.93;4.20;;;14.30;50.10;;;;;;4959089;28;20424;-73
2021/10/05 08:00:07;;;;;;;8.83;5.20;;;14.40;49.90;;;;;;4954709;28;20855;-73
2021/10/05 08:02:33;;;;;;;4.65;3.70;;;14.40;48.50;;;;;;4954734;28;20412;-76
2021/10/05 08:04:59;;;;;;;5.70;3.75;;;14.50;48.60;;;;;;4960032;28;20417;-76
2021/10/05 08:07:26;;;;;;;5.93;4.20;;;14.50;47.20;;;;;;4970495;28;20528;-77
2021/10/05 08:09:56;;;;;;;13.15;3.90;;;14.60;47.30;;;;;;4976674;28;20450;-77
2021/10/05 08:12:23;;;;;;;6.32;4.00;;;14.40;47.20;;;;;;4977123;28;20404;-75
2021/10/05 08:14:49;;;;;;;6.30;4.10;;;14.40;47.10;;;;;;4979345;28;20432;-76
2021/10/05 08:17:15;;;;;;;4.90;3.30;;;14.30;47.50;;;;;;4959186;28;20400;-76
2021/10/05 08:19:40;;;;;;;14.50;4.70;;;14.30;47.40;;;;;;4958723;28;20386;-76
2021/10/05 08:22:06;;;;;;;4.90;3.40;;;14.40;48.00;;;;;;4959283;28;20420;-78
2021/10/05 08:24:32;;;;;;;4.77;3.50;;;14.50;47.20;;;;;;4954362;28;20449;-75
2021/10/05 08:26:58;;;;;;;5.00;3.28;;;14.60;45.80;;;;;;4969279;28;20804;-75
2021/10/05 08:29:24;;;;;;;4.47;3.30;;;14.80;45.90;;;;;;4965478;28;20408;-75
2021/10/05 08:31:50;;;;;;;4.97;3.60;;;14.80;43.70;;;;;;4971252;28;20392;-74
2021/10/05 08:34:18;;;;;;;4.28;3.80;;;15.10;44.70;;;;;;4972155;28;20424;-75
2021/10/05 08:36:45;;;;;;;4.05;3.50;;;15.20;41.90;;;;;;4972560;28;20451;-74
2021/10/05 08:39:10;;;;;;;4.53;3.30;;;15.30;40.20;;;;;;4971658;28;20410;-74
2021/10/05 08:41:37;;;;;;;7.67;3.97;;;15.20;39.80;;;;;;4952829;29;20434;-75
2021/10/05 08:44:03;;;;;;;5.03;3.60;;;15.30;40.50;;;;;;4952935;28;20390;-74
2021/10/05 08:46:29;;;;;;;3.60;3.30;;;15.30;40.00;;;;;;4952068;28;20421;-75
2021/10/05 08:48:56;;;;;;;7.68;3.30;;;15.30;39.70;;;;;;4953217;28;20452;-75
2021/10/05 08:51:21;;;;;;;3.87;3.30;;;15.40;39.60;;;;;;4953199;28;20460;-75
2021/10/05 08:53:47;;;;;;;5.47;3.20;;;15.50;39.20;;;;;;4958887;28;20899;-75
2021/10/05 08:56:14;;;;;;;3.00;2.63;;;15.60;39.30;;;;;;4973724;28;20396;-78
2021/10/05 08:58:41;;;;;;;3.38;3.08;;;15.60;38.50;;;;;;4971935;28;20929;-76
2021/10/05 09:01:16;;;;;;;3.92;3.33;;;15.70;38.00;;;;;;4974971;28;20498;-75
2021/10/05 09:03:50;;;;;;;3.50;3.20;;;15.80;37.50;;;;;;4974872;28;20384;-76
2021/10/05 09:06:17;;;;;;;5.30;3.30;;;15.80;38.60;;;;;;4974871;28;20830;-76
2021/10/05 09:08:44;;;;;;;6.25;3.45;;;15.90;37.40;;;;;;4961638;28;20744;-76
2021/10/05 09:11:11;;;;;;;4.88;3.20;;;15.70;37.80;;;;;;4975471;28;20410;-77
2021/10/05 09:13:40;;;;;;;6.03;3.30;;;15.70;38.10;;;;;;4986026;28;20404;-77
2021/10/05 09:16:27;;;;;;;5.97;3.10;;;15.50;38.80;;;;;;4972511;28;20450;-76
2021/10/05 09:18:57;;;;;;;5.70;3.60;;;15.40;39.20;;;;;;4965131;28;20412;-76
2021/10/05 09:21:44;;;;;;;3.17;2.88;;;15.40;39.60;;;;;;4972253;28;20384;-76
2021/10/05 09:24:35;;;;;;;4.78;2.75;;;15.40;39.50;;;;;;4972194;28;20407;-76
2021/10/05 09:27:04;;;;;;;3.10;2.80;;;15.50;39.40;;;;;;4976900;28;20765;-76
2021/10/05 09:29:35;;;;;;;5.60;3.30;;;15.70;39.00;;;;;;4965855;28;20435;-76
2021/10/05 09:32:12;;;;;;;2.53;2.30;;;15.80;38.50;;;;;;4973474;28;20493;-76
2021/10/05 09:34:50;;;;;;;2.78;2.58;;;15.80;38.10;;;;;;4973643;28;20411;-76
2021/10/05 09:37:30;;;;;;;7.80;2.88;;;15.90;38.10;;;;;;4975877;28;20499;-77
2021/10/05 09:40:06;;;;;;;5.00;2.30;;;15.90;36.70;;;;;;4975522;28;20888;-77
2021/10/05 09:42:36;;;;;;;3.58;2.38;;;15.90;36.80;;;;;;4976490;28;20420;-76
2021/10/05 09:45:24;;;;;;;2.92;2.50;;;15.90;37.30;;;;;;4967838;28;20400;-77
2021/10/05 09:47:52;;;;;;;2.90;2.60;;;16.00;38.20;;;;;;4978939;28;20734;-77
2021/10/05 09:50:24;;;;;;;5.00;2.60;;;16.10;36.90;;;;;;4997443;28;20425;-79
2021/10/05 09:52:59;;;;;;;4.32;2.40;;;16.30;36.00;;;;;;4998589;28;20394;-77
2021/10/05 09:55:29;;;;;;;4.07;2.10;;;16.30;35.20;;;;;;4997408;28;20398;-78
2021/10/05 09:57:56;;;;;;;4.80;2.70;;;16.40;35.60;;;;;;4961592;28;20842;-78
2021/10/05 10:00:26;;;;;;;3.08;2.30;;;16.30;34.60;;;;;;4968298;28;20479;-77
2021/10/05 10:02:52;;;;;;;2.40;2.20;;;16.20;35.20;;;;;;4976355;28;20416;-77
2021/10/05 10:05:24;;;;;;;2.60;2.28;;;16.10;34.90;;;;;;4979115;28;20450;-78
2021/10/05 10:07:52;;;;;;;5.72;2.60;;;16.30;34.80;;;;;;4969871;28;20592;-78
2021/10/05 10:10:21;;;;;;;2.75;1.90;;;16.30;35.40;;;;;;4979246;28;20415;-77
2021/10/05 10:12:48;;;;;;;6.50;2.50;;;16.50;34.30;;;;;;4973688;28;20472;-79
2021/10/05 10:15:15;;;;;;;5.13;2.15;;;16.70;33.40;;;;;;4959132;28;20433;-77
2021/10/05 10:17:41;;;;;;;3.90;2.40;;;16.80;32.30;;;;;;4968961;28;21055;-77
2021/10/05 10:20:19;;;;;;;5.47;2.40;;;16.90;32.50;;;;;;4978083;28;20397;-78
2021/10/05 10:22:46;;;;;;;4.83;2.07;;;16.90;31.00;;;;;;4967419;28;20416;-77
2021/10/05 10:25:27;;;;;;;3.67;1.80;;;16.90;31.60;;;;;;4965827;28;20489;-77
2021/10/05 10:27:58;;;;;;;4.82;2.33;;;17.00;32.00;;;;;;4960048;28;20769;-78
2021/10/05 10:30:28;;;;;;;3.67;2.35;;;17.00;31.80;;;;;;4958909;28;20401;-77
2021/10/05 10:33:03;;;;;;;2.90;2.20;;;17.00;31.30;;;;;;4958559;28;20405;-77
2021/10/05 10:35:29;;;;;;;2.47;2.10;;;17.10;30.80;;;;;;4966142;28;20406;-76
2021/10/05 10:37:56;;;;;;;3.85;2.10;;;17.20;31.10;;;;;;4968254;28;20409;-77
2021/10/05 10:40:35;;;;;;;5.50;2.03;;;17.20;30.30;;;;;;4964769;28;20409;-79
2021/10/05 10:43:12;;;;;;;3.58;1.90;;;17.10;30.60;;;;;;4959837;28;20400;-76
2021/10/05 10:45:46;;;;;;;3.90;1.70;;;17.20;30.70;;;;;;4975499;28;20406;-77
2021/10/05 10:48:23;;;;;;;7.80;1.80;;;17.30;30.10;;;;;;4974843;28;20473;-77
2021/10/05 10:50:49;;;;;;;3.60;1.80;;;17.40;30.10;;;;;;4959390;28;20962;-79
2021/10/05 10:53:15;;;;;;;7.72;3.63;;;17.40;29.50;;;;;;4957564;28;20393;-76
2021/10/05 10:55:44;;;;;;;4.05;2.58;;;17.50;30.00;;;;;;4960050;28;20405;-77
2021/10/05 10:58:13;;;;;;;4.78;1.90;;;17.60;29.20;;;;;;4982737;28;20412;-77
2021/10/05 11:00:48;;;;;;;5.15;1.90;;;17.70;28.30;;;;;;4976037;28;20459;-77
2021/10/05 11:03:14;;;;;;;3.35;1.90;;;17.70;27.90;;;;;;4976467;28;20427;-77
2021/10/05 11:05:39;;;;;;;2.88;1.85;;;17.80;27.80;;;;;;4979912;28;20412;-77
2021/10/05 11:08:12;;;;;;;3.90;2.27;;;17.80;27.30;;;;;;4964887;28;20849;-76
2021/10/05 11:10:40;;;;;;;3.22;1.92;;;17.90;27.20;;;;;;4971729;28;22442;-77
2021/10/05 11:13:08;;;;;;;5.90;1.90;;;17.80;27.00;;;;;;4995625;28;20418;-75
2021/10/05 11:15:42;;;;;;;5.90;1.90;;;17.90;27.70;;;;;;4979613;28;20411;-77
2021/10/05 11:18:09;;;;;;;3.30;1.45;;;17.90;27.30;;;;;;4960313;28;20419;-77
2021/10/05 11:20:44;;;;;;;3.30;1.58;;;18.00;27.20;;;;;;4976372;28;20403;-76
2021/10/05 11:23:10;;;;;;;5.47;1.80;;;18.10;26.30;;;;;;4971305;28;20396;-76
2021/10/05 11:25:36;;;;;;;3.50;1.70;;;18.10;25.90;;;;;;4976414;28;20475;-77
2021/10/05 11:28:10;;;;;;;3.80;1.90;;;18.20;26.30;;;;;;4978519;28;20435;-78
2021/10/05 11:30:52;;;;;;;3.20;1.95;;;18.30;25.70;;;;;;4971511;28;20990;-78
2021/10/05 11:33:25;;;;;;;5.00;1.60;;;18.30;25.20;;;;;;4959705;28;20409;-79
2021/10/05 11:35:52;;;;;;;4.88;1.75;;;18.40;25.20;;;;;;4956811;28;20390;-78
2021/10/05 11:38:18;;;;;;;6.22;1.90;;;18.40;25.10;;;;;;4960256;28;20445;-76
2021/10/05 11:40:57;;;;;;;4.05;1.80;;;18.50;25.20;;;;;;4962961;28;20393;-76
2021/10/05 11:43:38;;;;;;;4.22;1.80;;;18.50;25.00;;;;;;4962133;28;20482;-77
2021/10/05 11:46:11;;;;;;;4.38;1.60;;;18.60;25.20;;;;;;4964970;28;20400;-78
2021/10/05 11:48:52;;;;;;;4.28;1.70;;;18.70;24.50;;;;;;4978019;28;20420;-78
2021/10/05 11:51:20;;;;;;;3.08;1.83;;;18.70;24.90;;;;;;4976412;28;20474;-77
2021/10/05 11:53:47;;;;;;;5.20;1.90;;;19.00;24.50;;;;;;4977769;28;20483;-78
2021/10/05 11:56:15;;;;;;;2.88;1.70;;;19.40;22.50;;;;;;4961713;28;20885;-77
2021/10/05 11:58:42;;;;;;;3.42;1.80;;;19.70;21.50;;;;;;4975784;28;20416;-76
2021/10/05 12:01:13;;;;;;;3.80;1.45;;;19.90;21.50;;;;;;4957232;28;20406;-76
2021/10/05 12:03:38;;;;;;;4.22;1.50;;;19.90;20.40;;;;;;4955390;28;20390;-77
2021/10/05 12:06:04;;;;;;;5.57;1.90;;;20.00;21.30;;;;;;4955937;28;20390;-77
2021/10/05 12:08:29;;;;;;;5.00;2.10;;;20.00;20.90;;;;;;4957022;28;20484;-76
2021/10/05 12:10:55;;;;;;;3.13;2.00;;;19.90;21.20;;;;;;4961733;28;20419;-76
2021/10/05 12:13:21;;;;;;;2.40;1.70;;;19.80;21.30;;;;;;4973723;28;20388;-75
2021/10/05 12:15:47;;;;;;;6.68;1.77;;;19.60;21.90;;;;;;4957186;28;20767;-77
2021/10/05 12:18:14;;;;;;;4.88;1.70;;;19.50;21.10;;;;;;4956746;28;20401;-77
2021/10/05 12:20:39;;;;;;;6.95;2.30;;;19.40;21.30;;;;;;4956176;28;20401;-76
2021/10/05 12:23:08;;;;;;;3.70;1.88;;;19.40;20.90;;;;;;4958630;28;20728;-76
2021/10/05 12:25:39;;;;;;;2.50;1.88;;;19.60;20.80;;;;;;4957094;28;20409;-76
2021/10/05 12:28:07;;;;;;;5.47;2.17;;;20.00;20.10;;;;;;4956138;28;20760;-75
2021/10/05 12:30:33;;;;;;;12.05;2.55;;;20.30;19.70;;;;;;4957966;28;20405;-78
2021/10/05 12:33:10;;;;;;;10.15;2.70;;;20.60;19.40;;;;;;4953881;28;20401;-75
2021/10/05 12:35:38;;;;;;;4.15;1.73;;;20.60;19.20;;;;;;4954318;28;20405;-76
2021/10/05 12:38:16;;;;;;;6.90;2.10;;;20.70;19.10;;;;;;4953503;28;20409;-76
2021/10/05 12:40:50;;;;;;;9.43;2.17;;;20.70;18.80;;;;;;4952112;28;20413;-76
2021/10/05 12:43:21;;;;;;;4.13;2.10;;;20.90;18.80;;;;;;4956697;28;20451;-75
2021/10/05 12:45:58;;;;;;;4.00;1.90;;;20.80;18.60;;;;;;4952242;28;20753;-75
2021/10/05 12:48:38;;;;;;;7.03;1.80;;;20.80;18.30;;;;;;4953254;28;20400;-76
2021/10/05 12:51:10;;;;;;;6.50;2.10;;;20.90;18.20;;;;;;4953806;28;20794;-76